| time (UTC) | temp F | wind direction | speed MPH | gust MPH | rain 1hr in | rain 24hr in | rain mn in | humidity % | barometer mb |
| 20260508041509 | 43 | 151 | 2.0 | 3.0 | 0.00 | 0.00 | 0.00 | 99 | 1018.7 |
| 20260508041006 | 44 | 70 | 3.0 | 4.0 | 0.00 | 0.00 | 0.00 | 99 | 1018.3 |
| 20260508040504 | 44 | 70 | 3.0 | 4.0 | 0.00 | 0.00 | 0.00 | 99 | 1018.3 |
| 20260508040001 | 44 | 27 | 4.0 | 4.0 | 0.00 | 0.00 | 0.00 | 99 | 1018.6 |
| 20260508035458 | 44 | 27 | 4.0 | 4.0 | 0.00 | 0.00 | 0.00 | 99 | 1018.6 |
| 20260508034954 | 43 | 303 | 3.0 | 4.0 | 0.00 | 0.00 | 0.00 | 99 | 1018.7 |
| 20260508034452 | 43 | 303 | 3.0 | 4.0 | 0.00 | 0.00 | 0.00 | 99 | 1018.7 |
| 20260508033948 | 43 | 138 | 6.0 | 7.0 | 0.00 | 0.00 | 0.00 | 99 | 1019.3 |
| 20260508033447 | 43 | 138 | 6.0 | 7.0 | 0.00 | 0.00 | 0.00 | 99 | 1019.3 |
| 20260508032943 | 44 | 102 | 8.0 | 11.0 | 0.00 | 0.00 | 0.00 | 99 | 1019.6 |
| 20260508032441 | 44 | 102 | 8.0 | 11.0 | 0.00 | 0.00 | 0.00 | 99 | 1019.6 |
| 20260508031937 | 44 | 73 | 6.0 | 7.0 | 0.00 | 0.00 | 0.00 | 99 | 1019.4 |
| 20260508031435 | 44 | 73 | 6.0 | 7.0 | 0.00 | 0.00 | 0.00 | 99 | 1019.4 |
| 20260508030930 | 44 | 92 | 7.0 | 8.0 | 0.00 | 0.00 | 0.00 | 99 | 1018.9 |
| 20260508030428 | 44 | 92 | 7.0 | 8.0 | 0.00 | 0.00 | 0.00 | 99 | 1018.9 |
| 20260508025925 | 44 | 82 | 9.0 | 11.0 | 0.00 | 0.00 | 0.00 | 99 | 1018.9 |
| 20260508025422 | 44 | 82 | 9.0 | 11.0 | 0.00 | 0.00 | 0.00 | 99 | 1018.9 |
| 20260508024919 | 43 | 176 | 10.0 | 11.0 | 0.00 | 0.00 | 0.00 | 99 | 1018.9 |
| 20260508024416 | 43 | 176 | 10.0 | 11.0 | 0.00 | 0.00 | 0.00 | 99 | 1018.9 |
| 20260508023912 | 46 | 189 | 16.0 | 17.0 | 0.00 | 0.00 | 0.00 | 99 | 1018.8 |
| 20260508023409 | 46 | 189 | 16.0 | 17.0 | 0.00 | 0.00 | 0.00 | 99 | 1018.8 |
| 20260508022906 | 47 | 111 | 6.0 | 7.0 | 0.00 | 0.00 | 0.00 | 99 | 1018.3 |
| 20260508022401 | 47 | 111 | 6.0 | 7.0 | 0.00 | 0.00 | 0.00 | 99 | 1018.3 |
| 20260508021858 | 47 | 117 | 3.0 | 4.0 | 0.00 | 0.00 | 0.00 | 99 | 1018.6 |
| 20260508021354 | 47 | 117 | 3.0 | 4.0 | 0.00 | 0.00 | 0.00 | 99 | 1018.6 |
| 20260508020850 | 47 | 82 | 4.0 | 4.0 | 0.00 | 0.00 | 0.00 | 99 | 1018.4 |
| 20260508020348 | 47 | 82 | 4.0 | 4.0 | 0.00 | 0.00 | 0.00 | 99 | 1018.4 |
| 20260508015845 | 47 | 92 | 11.0 | 11.0 | 0.00 | 0.00 | 0.00 | 99 | 1018.4 |
| 20260508015343 | 47 | 92 | 11.0 | 11.0 | 0.00 | 0.00 | 0.00 | 99 | 1018.4 |
| 20260508014839 | 48 | 109 | 4.0 | 6.0 | 0.00 | 0.00 | 0.00 | 99 | 1018.2 |
| 20260508014337 | 48 | 109 | 4.0 | 6.0 | 0.00 | 0.00 | 0.00 | 99 | 1018.2 |
| 20260508013837 | 48 | 132 | 3.0 | 4.0 | 0.00 | 0.00 | 0.00 | 99 | 1017.7 |
| 20260508013334 | 48 | 132 | 3.0 | 4.0 | 0.00 | 0.00 | 0.00 | 99 | 1017.7 |
| 20260508012831 | 47 | 97 | 15.0 | 18.0 | 0.00 | 0.00 | 0.00 | 99 | 1017.9 |
| 20260508012328 | 47 | 97 | 15.0 | 18.0 | 0.00 | 0.00 | 0.00 | 99 | 1017.9 |
| 20260508011826 | 47 | 145 | 8.0 | 16.0 | 0.00 | 0.00 | 0.00 | 99 | 1018.1 |
| 20260508011324 | 47 | 145 | 8.0 | 16.0 | 0.00 | 0.00 | 0.00 | 99 | 1018.1 |
| 20260508010820 | 47 | 91 | 14.0 | 16.0 | 0.00 | 0.00 | 0.00 | 99 | 1017.7 |
| 20260508010318 | 47 | 91 | 14.0 | 16.0 | 0.00 | 0.00 | 0.00 | 99 | 1017.7 |
| 20260508005815 | 47 | 92 | 8.0 | 9.0 | 0.00 | 0.00 | 0.00 | 99 | 1017.7 |
| 20260508005312 | 47 | 92 | 8.0 | 9.0 | 0.00 | 0.00 | 0.00 | 99 | 1017.7 |
| 20260508004808 | 46 | 111 | 5.0 | 6.0 | 0.00 | 0.00 | 0.00 | 99 | 1017.2 |
| 20260508004304 | 46 | 111 | 5.0 | 6.0 | 0.00 | 0.00 | 0.00 | 99 | 1017.2 |
| 20260508003800 | 47 | 84 | 10.0 | 11.0 | 0.00 | 0.00 | 0.00 | 99 | 1017.1 |
| 20260508003259 | 47 | 84 | 10.0 | 11.0 | 0.00 | 0.00 | 0.00 | 99 | 1017.1 |
| 20260508002754 | 47 | 51 | 8.0 | 10.0 | 0.00 | 0.00 | 0.00 | 99 | 1017.4 |
| 20260508002252 | 47 | 51 | 8.0 | 10.0 | 0.00 | 0.00 | 0.00 | 99 | 1017.4 |
| 20260508001748 | 46 | 68 | 12.0 | 18.0 | 0.00 | 0.00 | 0.00 | 99 | 1017.2 |
| 20260508001243 | 46 | 68 | 12.0 | 18.0 | 0.00 | 0.00 | 0.00 | 99 | 1017.2 |
| 20260508000740 | 46 | 121 | 8.0 | 14.0 | 0.00 | 0.00 | 0.00 | 99 | 1017.2 |
| 20260508000237 | 46 | 121 | 8.0 | 14.0 | 0.00 | 0.00 | 0.00 | 99 | 1017.2 |
| 20260507235733 | 46 | 32 | 9.0 | 14.0 | 0.00 | 0.00 | 0.00 | 99 | 1017.2 |
| 20260507235231 | 46 | 32 | 9.0 | 14.0 | 0.00 | 0.00 | 0.00 | 99 | 1017.2 |
| 20260507234728 | 48 | 93 | 18.0 | 29.0 | 0.00 | 0.00 | 0.00 | 99 | 1017.6 |
| 20260507234224 | 48 | 93 | 18.0 | 29.0 | 0.00 | 0.00 | 0.00 | 99 | 1017.6 |
| 20260507233721 | 49 | 80 | 9.0 | 13.0 | 0.00 | 0.00 | 0.00 | 99 | 1017.6 |
| 20260507233219 | 49 | 80 | 9.0 | 13.0 | 0.00 | 0.00 | 0.00 | 99 | 1017.6 |
| 20260507232716 | 48 | 72 | 15.0 | 21.0 | 0.00 | 0.00 | 0.00 | 99 | 1017.7 |
| 20260507232213 | 48 | 72 | 15.0 | 21.0 | 0.00 | 0.00 | 0.00 | 99 | 1017.7 |
| 20260507231709 | 49 | 94 | 13.0 | 15.0 | 0.00 | 0.00 | 0.00 | 99 | 1017.8 |
| 20260507231206 | 49 | 94 | 13.0 | 15.0 | 0.00 | 0.00 | 0.00 | 99 | 1017.8 |
| 20260507230703 | 49 | 167 | 15.0 | 18.0 | 0.00 | 0.00 | 0.00 | 99 | 1017.7 |
| 20260507230200 | 49 | 167 | 15.0 | 18.0 | 0.00 | 0.00 | 0.00 | 99 | 1017.7 |
| 20260507225700 | 50 | 109 | 21.0 | 24.0 | 0.00 | 0.00 | 0.00 | 99 | 1017.4 |
| 20260507225157 | 50 | 109 | 21.0 | 24.0 | 0.00 | 0.00 | 0.00 | 99 | 1017.4 |
| 20260507224652 | 51 | 110 | 19.0 | 23.0 | 0.00 | 0.00 | 0.00 | 99 | 1017.3 |
| 20260507224149 | 51 | 110 | 19.0 | 23.0 | 0.00 | 0.00 | 0.00 | 99 | 1017.3 |
| 20260507223645 | 52 | 149 | 19.0 | 25.0 | 0.00 | 0.00 | 0.00 | 99 | 1017.1 |
| 20260507223142 | 52 | 149 | 19.0 | 25.0 | 0.00 | 0.00 | 0.00 | 99 | 1017.1 |
| 20260507222639 | 53 | 116 | 14.0 | 18.0 | 0.00 | 0.00 | 0.00 | 99 | 1017.1 |
| 20260507222135 | 53 | 116 | 14.0 | 18.0 | 0.00 | 0.00 | 0.00 | 99 | 1017.1 |
| 20260507221632 | 52 | 140 | 12.0 | 16.0 | 0.00 | 0.00 | 0.00 | 99 | 1017.1 |
| 20260507221128 | 52 | 140 | 12.0 | 16.0 | 0.00 | 0.00 | 0.00 | 99 | 1017.1 |
| 20260507220626 | 53 | 102 | 15.0 | 18.0 | 0.00 | 0.00 | 0.00 | 99 | 1017.1 |
| 20260507220123 | 53 | 102 | 15.0 | 18.0 | 0.00 | 0.00 | 0.00 | 99 | 1017.1 |
| 20260507215619 | 53 | 100 | 8.0 | 9.0 | 0.00 | 0.00 | 0.00 | 99 | 1017.3 |
| 20260507215117 | 53 | 100 | 8.0 | 9.0 | 0.00 | 0.00 | 0.00 | 99 | 1017.3 |
| 20260507214614 | 55 | 107 | 14.0 | 16.0 | 0.00 | 0.00 | 0.00 | 99 | 1017.2 |
| 20260507214110 | 55 | 107 | 14.0 | 16.0 | 0.00 | 0.00 | 0.00 | 99 | 1017.2 |
| 20260507213606 | 52 | 189 | 13.0 | 16.0 | 0.00 | 0.00 | 0.00 | 99 | 1017.3 |
| 20260507213104 | 52 | 189 | 13.0 | 16.0 | 0.00 | 0.00 | 0.00 | 99 | 1017.3 |
| 20260507212559 | 53 | 136 | 13.0 | 18.0 | 0.00 | 0.00 | 0.00 | 99 | 1017.4 |
| 20260507212056 | 53 | 136 | 13.0 | 18.0 | 0.00 | 0.00 | 0.00 | 99 | 1017.4 |
| 20260507211553 | 53 | 137 | 9.0 | 14.0 | 0.00 | 0.00 | 0.00 | 99 | 1017.6 |
| 20260507211049 | 53 | 137 | 9.0 | 14.0 | 0.00 | 0.00 | 0.00 | 99 | 1017.6 |
| 20260507210547 | 52 | 111 | 11.0 | 13.0 | 0.00 | 0.00 | 0.00 | 99 | 1017.8 |
| 20260507210043 | 52 | 111 | 11.0 | 13.0 | 0.00 | 0.00 | 0.00 | 99 | 1017.8 |
| 20260507205540 | 52 | 149 | 13.0 | 17.0 | 0.00 | 0.00 | 0.00 | 99 | 1017.6 |
| 20260507205036 | 52 | 149 | 13.0 | 17.0 | 0.00 | 0.00 | 0.00 | 99 | 1017.6 |
| 20260507204533 | 52 | 156 | 11.0 | 15.0 | 0.00 | 0.00 | 0.00 | 99 | 1017.9 |
| 20260507204031 | 52 | 156 | 11.0 | 15.0 | 0.00 | 0.00 | 0.00 | 99 | 1017.9 |
| 20260507203528 | 51 | 60 | 17.0 | 19.0 | 0.00 | 0.00 | 0.00 | 99 | 1018.1 |
| 20260507203025 | 51 | 60 | 17.0 | 19.0 | 0.00 | 0.00 | 0.00 | 99 | 1018.1 |
| 20260507202521 | 50 | 78 | 11.0 | 15.0 | 0.00 | 0.00 | 0.00 | 99 | 1018.2 |
| 20260507202017 | 50 | 78 | 11.0 | 15.0 | 0.00 | 0.00 | 0.00 | 99 | 1018.2 |
| 20260507201513 | 51 | 49 | 6.0 | 7.0 | 0.00 | 0.00 | 0.00 | 99 | 1018.3 |
| 20260507201009 | 51 | 49 | 6.0 | 7.0 | 0.00 | 0.00 | 0.00 | 99 | 1018.3 |
| 20260507200505 | 52 | 70 | 8.0 | 9.0 | 0.00 | 0.00 | 0.00 | 99 | 1018.2 |
| 20260507200001 | 52 | 70 | 8.0 | 9.0 | 0.00 | 0.00 | 0.00 | 99 | 1018.2 |
| 20260507195459 | 51 | 26 | 6.0 | 7.0 | 0.00 | 0.00 | 0.00 | 99 | 1018.6 |
| 20260507194956 | 51 | 26 | 6.0 | 7.0 | 0.00 | 0.00 | 0.00 | 99 | 1018.6 |
| 20260507194452 | 51 | 97 | 13.0 | 16.0 | 0.00 | 0.00 | 0.00 | 99 | 1018.4 |
| 20260507193948 | 51 | 97 | 13.0 | 16.0 | 0.00 | 0.00 | 0.00 | 99 | 1018.4 |
| 20260507193445 | 51 | 67 | 12.0 | 14.0 | 0.00 | 0.00 | 0.00 | 99 | 1018.4 |
| 20260507192942 | 51 | 67 | 12.0 | 14.0 | 0.00 | 0.00 | 0.00 | 99 | 1018.4 |
| 20260507192438 | 51 | 82 | 9.0 | 13.0 | 0.00 | 0.00 | 0.00 | 99 | 1018.7 |
| 20260507191936 | 51 | 82 | 9.0 | 13.0 | 0.00 | 0.00 | 0.00 | 99 | 1018.7 |
| 20260507191431 | 49 | 97 | 21.0 | 24.0 | 0.00 | 0.00 | 0.00 | 99 | 1018.4 |
| 20260507190928 | 49 | 97 | 21.0 | 24.0 | 0.00 | 0.00 | 0.00 | 99 | 1018.4 |
| 20260507190426 | 49 | 121 | 24.0 | 30.0 | 0.00 | 0.00 | 0.00 | 99 | 1018.4 |
| 20260507185925 | 49 | 121 | 24.0 | 30.0 | 0.00 | 0.00 | 0.00 | 99 | 1018.4 |
| 20260507185421 | 50 | 144 | 16.0 | 19.0 | 0.00 | 0.00 | 0.00 | 99 | 1018.8 |
| 20260507184918 | 49 | 156 | 21.0 | 23.0 | 0.00 | 0.00 | 0.00 | 99 | 1018.6 |
| 20260507184416 | 49 | 156 | 21.0 | 23.0 | 0.00 | 0.00 | 0.00 | 99 | 1018.6 |
| 20260507183913 | 49 | 96 | 14.0 | 16.0 | 0.00 | 0.00 | 0.00 | 99 | 1018.6 |
| 20260507183410 | 49 | 96 | 14.0 | 16.0 | 0.00 | 0.00 | 0.00 | 99 | 1018.6 |
| 20260507182908 | 49 | 82 | 14.0 | 18.0 | 0.00 | 0.00 | 0.00 | 99 | 1018.7 |
| 20260507182403 | 49 | 82 | 14.0 | 18.0 | 0.00 | 0.00 | 0.00 | 99 | 1018.7 |
| 20260507181900 | 49 | 116 | 14.0 | 19.0 | 0.00 | 0.00 | 0.00 | 99 | 1018.8 |
| 20260507181355 | 49 | 116 | 14.0 | 19.0 | 0.00 | 0.00 | 0.00 | 99 | 1018.8 |
| 20260507180853 | 49 | 93 | 16.0 | 19.0 | 0.00 | 0.00 | 0.00 | 99 | 1018.8 |
| 20260507180349 | 49 | 93 | 16.0 | 19.0 | 0.00 | 0.00 | 0.00 | 99 | 1018.8 |
| 20260507175845 | 49 | 59 | 9.0 | 13.0 | 0.00 | 0.00 | 0.00 | 99 | 1018.7 |
| 20260507175342 | 49 | 59 | 9.0 | 13.0 | 0.00 | 0.00 | 0.00 | 99 | 1018.7 |
| 20260507174840 | 48 | 60 | 11.0 | 15.0 | 0.00 | 0.00 | 0.00 | 99 | 1018.9 |
| 20260507174337 | 48 | 60 | 11.0 | 15.0 | 0.00 | 0.00 | 0.00 | 99 | 1018.9 |
| 20260507173834 | 48 | 105 | 12.0 | 15.0 | 0.00 | 0.00 | 0.00 | 99 | 1019.1 |
| 20260507173331 | 48 | 105 | 12.0 | 15.0 | 0.00 | 0.00 | 0.00 | 99 | 1019.1 |
| 20260507172828 | 48 | 117 | 20.0 | 23.0 | 0.00 | 0.00 | 0.00 | 99 | 1018.6 |
| 20260507172325 | 48 | 117 | 20.0 | 23.0 | 0.00 | 0.00 | 0.00 | 99 | 1018.6 |
| 20260507171820 | 48 | 76 | 15.0 | 17.0 | 0.00 | 0.00 | 0.00 | 99 | 1018.8 |
| 20260507171317 | 48 | 76 | 15.0 | 17.0 | 0.00 | 0.00 | 0.00 | 99 | 1018.8 |
| 20260507170814 | 48 | 121 | 17.0 | 21.0 | 0.00 | 0.00 | 0.00 | 99 | 1018.3 |
| 20260507170311 | 48 | 121 | 17.0 | 21.0 | 0.00 | 0.00 | 0.00 | 99 | 1018.3 |
| 20260507165807 | 48 | 80 | 25.0 | 30.0 | 0.00 | 0.00 | 0.00 | 99 | 1018.3 |
| 20260507165306 | 48 | 80 | 25.0 | 30.0 | 0.00 | 0.00 | 0.00 | 99 | 1018.3 |
| 20260507164759 | 47 | 99 | 17.0 | 19.0 | 0.00 | 0.00 | 0.00 | 99 | 1018.6 |
| 20260507164256 | 47 | 99 | 17.0 | 19.0 | 0.00 | 0.00 | 0.00 | 99 | 1018.6 |
| 20260507163753 | 48 | 115 | 21.0 | 22.0 | 0.00 | 0.00 | 0.00 | 99 | 1018.9 |
| 20260507163251 | 48 | 115 | 21.0 | 22.0 | 0.00 | 0.00 | 0.00 | 99 | 1018.9 |
| 20260507162747 | 48 | 72 | 16.0 | 19.0 | 0.00 | 0.00 | 0.00 | 99 | 1018.7 |
| 20260507162243 | 48 | 72 | 16.0 | 19.0 | 0.00 | 0.00 | 0.00 | 99 | 1018.7 |
| 20260507161740 | 47 | 132 | 19.0 | 22.0 | 0.00 | 0.00 | 0.00 | 99 | 1018.4 |
| 20260507161237 | 47 | 132 | 19.0 | 22.0 | 0.00 | 0.00 | 0.00 | 99 | 1018.4 |
| 20260507160732 | 47 | 114 | 16.0 | 18.0 | 0.00 | 0.00 | 0.00 | 99 | 1018.8 |
| 20260507160229 | 47 | 114 | 16.0 | 18.0 | 0.00 | 0.00 | 0.00 | 99 | 1018.8 |
| 20260507155725 | 46 | 155 | 16.0 | 17.0 | 0.00 | 0.00 | 0.00 | 99 | 1018.4 |
| 20260507155221 | 46 | 155 | 16.0 | 17.0 | 0.00 | 0.00 | 0.00 | 99 | 1018.4 |
| 20260507154718 | 46 | 89 | 15.0 | 21.0 | 0.00 | 0.00 | 0.00 | 99 | 1018.9 |
| 20260507154216 | 46 | 89 | 15.0 | 21.0 | 0.00 | 0.00 | 0.00 | 99 | 1018.9 |
| 20260507153712 | 47 | 155 | 5.0 | 6.0 | 0.00 | 0.00 | 0.00 | 99 | 1019.2 |
| 20260507153208 | 47 | 155 | 5.0 | 6.0 | 0.00 | 0.00 | 0.00 | 99 | 1019.2 |
| 20260507152705 | 46 | 79 | 7.0 | 11.0 | 0.00 | 0.00 | 0.00 | 99 | 1019.1 |
| 20260507152201 | 46 | 79 | 7.0 | 11.0 | 0.00 | 0.00 | 0.00 | 99 | 1019.1 |
| 20260507151657 | 45 | 127 | 9.0 | 10.0 | 0.00 | 0.00 | 0.00 | 99 | 1019.4 |
| 20260507151154 | 45 | 127 | 9.0 | 10.0 | 0.00 | 0.00 | 0.00 | 99 | 1019.4 |
| 20260507150651 | 45 | 140 | 9.0 | 13.0 | 0.00 | 0.00 | 0.00 | 99 | 1019.2 |
| 20260507150148 | 45 | 140 | 9.0 | 13.0 | 0.00 | 0.00 | 0.00 | 99 | 1019.2 |
| 20260507145643 | 44 | 164 | 10.0 | 13.0 | 0.00 | 0.00 | 0.00 | 99 | 1019.1 |
| 20260507145141 | 44 | 164 | 10.0 | 13.0 | 0.00 | 0.00 | 0.00 | 99 | 1019.1 |
| 20260507144637 | 44 | 123 | 12.0 | 14.0 | 0.00 | 0.00 | 0.00 | 99 | 1018.8 |
| 20260507144135 | 44 | 123 | 12.0 | 14.0 | 0.00 | 0.00 | 0.00 | 99 | 1018.8 |
| 20260507143631 | 44 | 94 | 12.0 | 13.0 | 0.00 | 0.00 | 0.00 | 99 | 1018.8 |
| 20260507143129 | 44 | 94 | 12.0 | 13.0 | 0.00 | 0.00 | 0.00 | 99 | 1018.8 |
| 20260507142624 | 43 | 90 | 17.0 | 19.0 | 0.00 | 0.00 | 0.00 | 99 | 1018.9 |
| 20260507142121 | 43 | 90 | 17.0 | 19.0 | 0.00 | 0.00 | 0.00 | 99 | 1018.9 |
| 20260507141617 | 43 | 93 | 9.0 | 9.0 | 0.00 | 0.00 | 0.00 | 99 | 1018.8 |
| 20260507141114 | 43 | 93 | 9.0 | 9.0 | 0.00 | 0.00 | 0.00 | 99 | 1018.8 |
| 20260507140611 | 42 | 82 | 10.0 | 11.0 | 0.00 | 0.00 | 0.00 | 99 | 1018.8 |
| 20260507140108 | 42 | 82 | 10.0 | 11.0 | 0.00 | 0.00 | 0.00 | 99 | 1018.8 |
| 20260507135605 | 41 | 109 | 8.0 | 9.0 | 0.00 | 0.00 | 0.00 | 99 | 1019.2 |
| 20260507135103 | 41 | 109 | 8.0 | 9.0 | 0.00 | 0.00 | 0.00 | 99 | 1019.2 |
| 20260507134559 | 40 | 80 | 7.0 | 8.0 | 0.00 | 0.00 | 0.00 | 99 | 1019.1 |
| 20260507134055 | 40 | 80 | 7.0 | 8.0 | 0.00 | 0.00 | 0.00 | 99 | 1019.1 |
| 20260507133551 | 40 | 67 | 12.0 | 13.0 | 0.00 | 0.00 | 0.00 | 99 | 1018.8 |
| 20260507133049 | 40 | 67 | 12.0 | 13.0 | 0.00 | 0.00 | 0.00 | 99 | 1018.8 |
| 20260507132546 | 39 | 118 | 10.0 | 11.0 | 0.00 | 0.00 | 0.00 | 99 | 1019.2 |
| 20260507132042 | 39 | 118 | 10.0 | 11.0 | 0.00 | 0.00 | 0.00 | 99 | 1019.2 |
| 20260507131539 | 39 | 96 | 12.0 | 14.0 | 0.00 | 0.00 | 0.00 | 99 | 1018.7 |
| 20260507131037 | 39 | 96 | 12.0 | 14.0 | 0.00 | 0.00 | 0.00 | 99 | 1018.7 |
| 20260507130533 | 39 | 90 | 9.0 | 10.0 | 0.00 | 0.00 | 0.00 | 99 | 1018.8 |
| 20260507130031 | 39 | 90 | 9.0 | 10.0 | 0.00 | 0.00 | 0.00 | 99 | 1018.8 |
| 20260507125529 | 38 | 97 | 11.0 | 13.0 | 0.00 | 0.00 | 0.00 | 99 | 1018.6 |
| 20260507125026 | 38 | 97 | 11.0 | 13.0 | 0.00 | 0.00 | 0.00 | 99 | 1018.6 |
| 20260507124523 | 38 | 81 | 12.0 | 14.0 | 0.00 | 0.00 | 0.00 | 99 | 1018.7 |
| 20260507124020 | 38 | 81 | 12.0 | 14.0 | 0.00 | 0.00 | 0.00 | 99 | 1018.7 |
| 20260507123519 | 38 | 110 | 11.0 | 15.0 | 0.00 | 0.00 | 0.00 | 99 | 1018.8 |
| 20260507123015 | 38 | 110 | 11.0 | 15.0 | 0.00 | 0.00 | 0.00 | 99 | 1018.8 |
| 20260507122510 | 39 | 112 | 12.0 | 16.0 | 0.00 | 0.00 | 0.00 | 99 | 1018.4 |
| 20260507122007 | 39 | 112 | 12.0 | 16.0 | 0.00 | 0.00 | 0.00 | 99 | 1018.4 |
| 20260507121502 | 39 | 81 | 11.0 | 13.0 | 0.00 | 0.00 | 0.00 | 99 | 1018.6 |
| 20260507120958 | 39 | 81 | 11.0 | 13.0 | 0.00 | 0.00 | 0.00 | 99 | 1018.6 |
| 20260507120454 | 40 | 99 | 14.0 | 16.0 | 0.00 | 0.00 | 0.00 | 99 | 1018.6 |
| 20260507115951 | 40 | 99 | 14.0 | 16.0 | 0.00 | 0.00 | 0.00 | 99 | 1018.6 |
| 20260507115448 | 38 | 103 | 13.0 | 15.0 | 0.00 | 0.00 | 0.00 | 99 | 1018.6 |
| 20260507114943 | 38 | 103 | 13.0 | 15.0 | 0.00 | 0.00 | 0.00 | 99 | 1018.6 |
| 20260507114440 | 39 | 96 | 15.0 | 17.0 | 0.00 | 0.00 | 0.00 | 99 | 1018.3 |
| 20260507113937 | 39 | 96 | 15.0 | 17.0 | 0.00 | 0.00 | 0.00 | 99 | 1018.3 |
| 20260507113434 | 39 | 75 | 14.0 | 16.0 | 0.00 | 0.00 | 0.00 | 99 | 1018.4 |
| 20260507112932 | 39 | 75 | 14.0 | 16.0 | 0.00 | 0.00 | 0.00 | 99 | 1018.4 |
| 20260507112429 | 39 | 119 | 21.0 | 24.0 | 0.00 | 0.00 | 0.00 | 99 | 1018.1 |
| 20260507111926 | 39 | 119 | 21.0 | 24.0 | 0.00 | 0.00 | 0.00 | 99 | 1018.1 |
| 20260507111423 | 39 | 112 | 17.0 | 21.0 | 0.00 | 0.00 | 0.00 | 99 | 1018.2 |
| 20260507110919 | 39 | 112 | 17.0 | 21.0 | 0.00 | 0.00 | 0.00 | 99 | 1018.2 |
| 20260507110416 | 39 | 104 | 18.0 | 22.0 | 0.00 | 0.00 | 0.00 | 99 | 1018.4 |
| 20260507105913 | 39 | 104 | 18.0 | 22.0 | 0.00 | 0.00 | 0.00 | 99 | 1018.4 |
| 20260507105409 | 39 | 129 | 15.0 | 18.0 | 0.00 | 0.00 | 0.00 | 99 | 1018.1 |
| 20260507104906 | 39 | 129 | 15.0 | 18.0 | 0.00 | 0.00 | 0.00 | 99 | 1018.1 |
| 20260507104403 | 39 | 93 | 20.0 | 22.0 | 0.00 | 0.00 | 0.00 | 99 | 1018.1 |
| 20260507103859 | 39 | 93 | 20.0 | 22.0 | 0.00 | 0.00 | 0.00 | 99 | 1018.1 |
| 20260507103356 | 39 | 103 | 18.0 | 21.0 | 0.00 | 0.00 | 0.00 | 99 | 1017.9 |
| 20260507102852 | 39 | 103 | 18.0 | 21.0 | 0.00 | 0.00 | 0.00 | 99 | 1017.9 |
| 20260507102348 | 38 | 139 | 15.0 | 16.0 | 0.00 | 0.00 | 0.00 | 99 | 1018.3 |
| 20260507101844 | 38 | 139 | 15.0 | 16.0 | 0.00 | 0.00 | 0.00 | 99 | 1018.3 |
| 20260507101344 | 38 | 129 | 16.0 | 17.0 | 0.00 | 0.00 | 0.00 | 99 | 1018.6 |
| 20260507100842 | 38 | 129 | 16.0 | 17.0 | 0.00 | 0.00 | 0.00 | 99 | 1018.6 |
| 20260507100340 | 38 | 84 | 19.0 | 21.0 | 0.00 | 0.00 | 0.00 | 99 | 1018.6 |
| 20260507095838 | 38 | 84 | 19.0 | 21.0 | 0.00 | 0.00 | 0.00 | 99 | 1018.6 |
| 20260507095334 | 38 | 103 | 18.0 | 21.0 | 0.00 | 0.00 | 0.00 | 99 | 1018.2 |
| 20260507094831 | 38 | 103 | 18.0 | 21.0 | 0.00 | 0.00 | 0.00 | 99 | 1018.2 |
| 20260507093745 | 38 | 152 | 15.0 | 18.0 | 0.00 | 0.00 | 0.00 | 99 | 1018.4 |
| 20260507093243 | 38 | 152 | 15.0 | 18.0 | 0.00 | 0.00 | 0.00 | 99 | 1018.4 |
| 20260507092741 | 37 | 147 | 14.0 | 16.0 | 0.00 | 0.00 | 0.00 | 99 | 1018.4 |
| 20260507092236 | 37 | 147 | 14.0 | 16.0 | 0.00 | 0.00 | 0.00 | 99 | 1018.4 |
| 20260507091733 | 38 | 126 | 19.0 | 21.0 | 0.00 | 0.00 | 0.00 | 99 | 1018.4 |
| 20260507091230 | 38 | 126 | 19.0 | 21.0 | 0.00 | 0.00 | 0.00 | 99 | 1018.4 |
| 20260507090725 | 37 | 77 | 19.0 | 22.0 | 0.00 | 0.00 | 0.00 | 99 | 1018.3 |
| 20260507090222 | 37 | 77 | 19.0 | 22.0 | 0.00 | 0.00 | 0.00 | 99 | 1018.3 |
| 20260507085719 | 37 | 123 | 15.0 | 21.0 | 0.00 | 0.00 | 0.00 | 99 | 1018.7 |
| 20260507085216 | 37 | 123 | 15.0 | 21.0 | 0.00 | 0.00 | 0.00 | 99 | 1018.7 |
| 20260507084713 | 37 | 104 | 17.0 | 19.0 | 0.00 | 0.00 | 0.00 | 99 | 1018.4 |
| 20260507084209 | 37 | 104 | 17.0 | 19.0 | 0.00 | 0.00 | 0.00 | 99 | 1018.4 |
| 20260507083707 | 38 | 88 | 17.0 | 21.0 | 0.00 | 0.00 | 0.00 | 99 | 1018.2 |
| 20260507083203 | 38 | 88 | 17.0 | 21.0 | 0.00 | 0.00 | 0.00 | 99 | 1018.2 |
| 20260507082659 | 37 | 92 | 19.0 | 21.0 | 0.00 | 0.00 | 0.00 | 99 | 1018.3 |
| 20260507082155 | 37 | 92 | 19.0 | 21.0 | 0.00 | 0.00 | 0.00 | 99 | 1018.3 |
| 20260507081652 | 37 | 87 | 20.0 | 23.0 | 0.00 | 0.00 | 0.00 | 99 | 1018.6 |
| 20260507081148 | 37 | 87 | 20.0 | 23.0 | 0.00 | 0.00 | 0.00 | 99 | 1018.6 |
| 20260507080645 | 37 | 96 | 19.0 | 22.0 | 0.00 | 0.00 | 0.00 | 99 | 1018.3 |
| 20260507080142 | 37 | 96 | 19.0 | 22.0 | 0.00 | 0.00 | 0.00 | 99 | 1018.3 |
| 20260507075642 | 37 | 100 | 21.0 | 23.0 | 0.00 | 0.00 | 0.00 | 99 | 1018.4 |
| 20260507075139 | 37 | 100 | 21.0 | 23.0 | 0.00 | 0.00 | 0.00 | 99 | 1018.4 |
| 20260507074636 | 37 | 88 | 19.0 | 25.0 | 0.00 | 0.00 | 0.00 | 99 | 1018.4 |
| 20260507074134 | 37 | 88 | 19.0 | 25.0 | 0.00 | 0.00 | 0.00 | 99 | 1018.4 |
| 20260507073630 | 37 | 101 | 17.0 | 21.0 | 0.00 | 0.00 | 0.00 | 99 | 1018.8 |
| 20260507073126 | 37 | 101 | 17.0 | 21.0 | 0.00 | 0.00 | 0.00 | 99 | 1018.8 |
| 20260507072624 | 36 | 77 | 22.0 | 25.0 | 0.00 | 0.00 | 0.00 | 99 | 1018.6 |
| 20260507072121 | 36 | 77 | 22.0 | 25.0 | 0.00 | 0.00 | 0.00 | 99 | 1018.6 |
| 20260507071619 | 37 | 111 | 19.0 | 22.0 | 0.00 | 0.00 | 0.00 | 99 | 1018.6 |
| 20260507071115 | 37 | 111 | 19.0 | 22.0 | 0.00 | 0.00 | 0.00 | 99 | 1018.6 |
| 20260507070612 | 36 | 112 | 23.0 | 29.0 | 0.00 | 0.00 | 0.00 | 99 | 1018.4 |
| 20260507070109 | 36 | 112 | 23.0 | 29.0 | 0.00 | 0.00 | 0.00 | 99 | 1018.4 |
| 20260507065605 | 36 | 96 | 24.0 | 29.0 | 0.00 | 0.00 | 0.00 | 99 | 1018.7 |
| 20260507065103 | 36 | 96 | 24.0 | 29.0 | 0.00 | 0.00 | 0.00 | 99 | 1018.7 |
| 20260507064600 | 37 | 94 | 23.0 | 24.0 | 0.00 | 0.00 | 0.00 | 99 | 1018.9 |
| 20260507064059 | 37 | 94 | 23.0 | 24.0 | 0.00 | 0.00 | 0.00 | 99 | 1018.9 |
| 20260507063556 | 36 | 127 | 20.0 | 23.0 | 0.00 | 0.00 | 0.00 | 99 | 1019.2 |
| 20260507063053 | 36 | 127 | 20.0 | 23.0 | 0.00 | 0.00 | 0.00 | 99 | 1019.2 |
| 20260507062549 | 36 | 82 | 17.0 | 19.0 | 0.00 | 0.00 | 0.00 | 99 | 1019.1 |
| 20260507062047 | 36 | 82 | 17.0 | 19.0 | 0.00 | 0.00 | 0.00 | 99 | 1019.1 |
| 20260507061544 | 37 | 92 | 13.0 | 16.0 | 0.00 | 0.00 | 0.00 | 99 | 1019.6 |
| 20260507061042 | 37 | 92 | 13.0 | 16.0 | 0.00 | 0.00 | 0.00 | 99 | 1019.6 |
| 20260507060540 | 36 | 97 | 20.0 | 22.0 | 0.00 | 0.21 | 0.21 | 99 | 1019.6 |
| 20260507060037 | 36 | 97 | 20.0 | 22.0 | 0.00 | 0.21 | 0.21 | 99 | 1019.6 |
| 20260507055531 | 36 | 98 | 19.0 | 22.0 | 0.00 | 0.21 | 0.21 | 99 | 1019.4 |
| 20260507055028 | 36 | 98 | 19.0 | 22.0 | 0.00 | 0.21 | 0.21 | 99 | 1019.4 |
| 20260507054524 | 37 | 95 | 16.0 | 21.0 | 0.00 | 0.21 | 0.21 | 99 | 1019.3 |
| 20260507054021 | 37 | 95 | 16.0 | 21.0 | 0.00 | 0.21 | 0.21 | 99 | 1019.3 |
| 20260507053519 | 37 | 80 | 25.0 | 30.0 | 0.00 | 0.21 | 0.21 | 99 | 1018.9 |
| 20260507053018 | 37 | 80 | 25.0 | 30.0 | 0.00 | 0.21 | 0.21 | 99 | 1018.9 |
| 20260507052515 | 37 | 84 | 26.0 | 30.0 | 0.00 | 0.21 | 0.21 | 99 | 1018.9 |
| 20260507052012 | 37 | 84 | 26.0 | 30.0 | 0.00 | 0.21 | 0.21 | 99 | 1018.9 |
| 20260507051509 | 36 | 67 | 20.0 | 24.0 | 0.00 | 0.21 | 0.21 | 99 | 1018.9 |
| 20260507051006 | 36 | 67 | 20.0 | 24.0 | 0.00 | 0.21 | 0.21 | 99 | 1018.9 |
| 20260507050502 | 36 | 81 | 16.0 | 19.0 | 0.00 | 0.21 | 0.21 | 99 | 1019.2 |
| 20260507045959 | 36 | 81 | 16.0 | 19.0 | 0.00 | 0.21 | 0.21 | 99 | 1019.2 |
| 20260507045455 | 36 | 63 | 18.0 | 22.0 | 0.00 | 0.21 | 0.21 | 99 | 1019.1 |
| 20260507044953 | 36 | 63 | 18.0 | 22.0 | 0.00 | 0.21 | 0.21 | 99 | 1019.1 |
| 20260507044450 | 35 | 107 | 18.0 | 22.0 | 0.00 | 0.21 | 0.21 | 99 | 1019.2 |
| 20260507043946 | 35 | 107 | 18.0 | 22.0 | 0.00 | 0.21 | 0.21 | 99 | 1019.2 |
| 20260507043442 | 36 | 124 | 18.0 | 22.0 | 0.00 | 0.21 | 0.21 | 99 | 1018.9 |
| 20260507042938 | 36 | 124 | 18.0 | 22.0 | 0.00 | 0.21 | 0.21 | 99 | 1018.9 |
| 20260507042435 | 35 | 119 | 21.0 | 26.0 | 0.00 | 0.21 | 0.21 | 99 | 1018.6 |
| 20260507041931 | 35 | 119 | 21.0 | 26.0 | 0.00 | 0.21 | 0.21 | 99 | 1018.6 |